createdAt,value
2023-04-12T00:00:41.745Z,19.25
2023-04-12T00:03:10.727Z,19.40
2023-04-12T00:05:38.517Z,20.05
2023-04-12T00:08:10.991Z,18.60
2023-04-12T00:10:39.527Z,19.70
2023-04-12T00:13:08.354Z,22.35
2023-04-12T00:15:36.240Z,20.25
2023-04-12T00:18:04.944Z,20.37
2023-04-12T00:20:32.515Z,18.87
2023-04-12T00:23:00.127Z,19.17
2023-04-12T00:25:29.806Z,18.87
2023-04-12T00:27:57.904Z,19.32
2023-04-12T00:30:26.214Z,22.32
2023-04-12T00:32:53.746Z,18.55
2023-04-12T00:35:22.107Z,19.35
2023-04-12T00:37:51.131Z,21.27
2023-04-12T00:40:19.175Z,20.62
2023-04-12T00:42:47.072Z,19.73
2023-04-12T00:45:16.630Z,19.90
2023-04-12T00:47:44.471Z,20.37
2023-04-12T00:50:12.324Z,20.75
2023-04-12T00:52:40.875Z,19.73
2023-04-12T00:55:10.309Z,19.17
2023-04-12T00:57:39.602Z,21.57
2023-04-12T01:00:14.497Z,21.57
2023-04-12T01:02:50.955Z,21.70
2023-04-12T01:05:24.636Z,20.25
2023-04-12T01:08:10.780Z,20.12
2023-04-12T01:11:03.628Z,19.45
2023-04-12T01:13:54.372Z,21.50
2023-04-12T01:16:35.567Z,19.90
2023-04-12T01:19:06.544Z,19.50
2023-04-12T01:21:56.177Z,20.85
2023-04-12T01:24:42.941Z,19.37
2023-04-12T01:27:13.925Z,21.57
2023-04-12T01:29:42.351Z,25.88
2023-04-12T01:32:12.609Z,19.40
2023-04-12T01:34:41.465Z,21.95
2023-04-12T01:37:12.152Z,22.30
2023-04-12T01:39:39.806Z,19.48
2023-04-12T01:42:07.793Z,20.05
2023-04-12T01:44:35.414Z,19.67
2023-04-12T01:47:03.593Z,18.23
2023-04-12T01:49:35.226Z,20.82
2023-04-12T01:52:10.836Z,20.10
2023-04-12T01:54:42.132Z,21.23
2023-04-12T01:57:11.383Z,16.37
2023-04-12T01:59:44.620Z,20.70
2023-04-12T02:02:17.301Z,22.37
2023-04-12T02:04:45.985Z,21.20
2023-04-12T02:07:19.242Z,28.57
2023-04-12T02:09:47.320Z,24.02
2023-04-12T02:12:14.953Z,23.05
2023-04-12T02:14:42.733Z,17.20
2023-04-12T02:17:13.459Z,23.98
2023-04-12T02:19:41.948Z,23.05
2023-04-12T02:22:10.343Z,22.05
2023-04-12T02:24:38.733Z,21.48
2023-04-12T02:27:09.761Z,19.57
2023-04-12T02:29:38.834Z,20.57
2023-04-12T02:32:06.952Z,19.45
2023-04-12T02:34:36.921Z,21.12
2023-04-12T02:37:20.731Z,20.88
2023-04-12T02:39:48.867Z,18.48
2023-04-12T02:42:17.720Z,23.32
2023-04-12T02:44:48.378Z,22.25
2023-04-12T02:47:16.423Z,23.47
2023-04-12T02:49:46.152Z,20.92
2023-04-12T02:52:18.717Z,22.80
2023-04-12T02:54:52.200Z,24.27
2023-04-12T02:57:21.896Z,28.65
2023-04-12T02:59:55.172Z,22.73
2023-04-12T03:02:24.910Z,24.98
2023-04-12T03:04:55.247Z,25.27
2023-04-12T03:07:28.092Z,25.60
2023-04-12T03:09:55.789Z,20.82
2023-04-12T03:12:24.016Z,23.87
2023-04-12T03:14:53.297Z,23.40
2023-04-12T03:17:23.274Z,25.12
2023-04-12T03:19:54.198Z,21.82
2023-04-12T03:22:23.262Z,26.25
2023-04-12T03:24:53.722Z,26.25
2023-04-12T03:27:22.278Z,24.05
2023-04-12T03:29:52.649Z,24.82
2023-04-12T03:32:21.875Z,24.77
2023-04-12T03:34:51.352Z,24.98
2023-04-12T03:37:20.737Z,24.02
2023-04-12T03:39:48.636Z,25.00
2023-04-12T03:42:31.652Z,23.22
2023-04-12T03:44:49.265Z,25.72
2023-04-12T03:47:17.181Z,23.98
2023-04-12T03:49:51.380Z,22.22
2023-04-12T03:52:14.760Z,22.22
2023-04-12T03:54:44.908Z,23.83
2023-04-12T03:57:14.796Z,22.07
2023-04-12T03:59:44.235Z,23.20
2023-04-12T04:02:12.407Z,21.60
2023-04-12T04:04:42.352Z,22.58
2023-04-12T04:07:14.749Z,21.73
2023-04-12T04:09:44.516Z,25.77
2023-04-12T04:12:13.117Z,23.05
2023-04-12T04:14:42.622Z,21.00
2023-04-12T04:17:12.480Z,20.20
2023-04-12T04:19:40.592Z,22.37
2023-04-12T04:22:08.310Z,25.30
2023-04-12T04:24:37.882Z,21.02
2023-04-12T04:27:07.020Z,25.50
2023-04-12T04:29:36.864Z,23.77
2023-04-12T04:32:04.998Z,23.75
2023-04-12T04:34:33.314Z,22.93
2023-04-12T04:37:03.131Z,20.27
2023-04-12T04:39:30.964Z,22.25
2023-04-12T04:42:05.024Z,25.02
2023-04-12T04:44:36.168Z,26.00
2023-04-12T04:47:07.217Z,24.60
2023-04-12T04:49:38.853Z,33.25
2023-04-12T04:52:09.399Z,25.32
2023-04-12T04:54:36.925Z,27.32
2023-04-12T04:57:07.288Z,28.27
2023-04-12T04:59:36.940Z,27.25
2023-04-12T05:02:06.607Z,29.63
2023-04-12T05:04:35.053Z,28.35
2023-04-12T05:07:03.772Z,27.52
2023-04-12T05:09:31.789Z,25.65
2023-04-12T05:12:00.641Z,25.25
2023-04-12T05:14:41.278Z,24.10
2023-04-12T05:16:57.523Z,28.25
2023-04-12T05:19:25.502Z,26.02
2023-04-12T05:21:53.709Z,25.23
2023-04-12T05:24:21.866Z,24.80
2023-04-12T05:26:50.776Z,23.00
2023-04-12T05:29:18.886Z,28.92
2023-04-12T05:31:47.032Z,21.70
2023-04-12T05:34:16.411Z,21.82
2023-04-12T05:36:46.673Z,20.30
2023-04-12T05:39:14.679Z,22.42
2023-04-12T05:41:42.837Z,20.90
2023-04-12T05:44:10.231Z,22.73
2023-04-12T05:46:38.223Z,20.45
2023-04-12T05:49:06.356Z,36.38
2023-04-12T05:51:41.455Z,35.23
2023-04-12T05:54:07.005Z,21.02
2023-04-12T05:56:35.342Z,19.52
2023-04-12T05:59:02.586Z,19.10
2023-04-12T06:01:32.596Z,16.17
2023-04-12T06:04:06.200Z,16.20
2023-04-12T06:06:34.468Z,19.02
2023-04-12T06:09:04.874Z,14.98
2023-04-12T06:11:34.384Z,17.35
2023-04-12T06:14:02.539Z,14.70
2023-04-12T06:16:30.318Z,15.03
2023-04-12T06:18:58.235Z,16.90
2023-04-12T06:21:27.618Z,15.48
2023-04-12T06:23:55.751Z,14.70
2023-04-12T06:26:23.939Z,15.85
2023-04-12T06:28:51.782Z,14.45
2023-04-12T06:31:21.180Z,13.60
2023-04-12T06:33:48.977Z,15.20
2023-04-12T06:36:16.860Z,15.15
2023-04-12T06:38:44.809Z,22.13
2023-04-12T06:41:13.738Z,13.85
2023-04-12T06:43:41.879Z,14.70
2023-04-12T06:46:10.399Z,14.70
2023-04-12T06:48:38.640Z,15.93
2023-04-12T06:51:06.673Z,15.30
2023-04-12T06:53:36.310Z,16.12
2023-04-12T06:56:05.271Z,15.60
2023-04-12T06:58:33.766Z,24.07
2023-04-12T07:01:10.217Z,17.40
2023-04-12T07:03:39.669Z,14.70
2023-04-12T07:06:21.805Z,32.65
2023-04-12T07:08:37.756Z,19.15
2023-04-12T07:11:20.182Z,17.65
2023-04-12T07:13:36.500Z,17.65
2023-04-12T07:16:04.820Z,16.35
2023-04-12T07:18:39.014Z,14.18
2023-04-12T07:21:10.121Z,19.67
2023-04-12T07:23:38.697Z,12.35
2023-04-12T07:26:10.480Z,15.10
2023-04-12T07:28:39.459Z,15.50
2023-04-12T07:31:07.870Z,14.10
2023-04-12T07:33:39.366Z,12.03
2023-04-12T07:36:07.616Z,32.55
2023-04-12T07:38:36.272Z,16.42
2023-04-12T07:41:05.081Z,14.75
2023-04-12T07:43:35.462Z,14.60
2023-04-12T07:46:04.666Z,14.05
2023-04-12T07:48:32.193Z,13.35
2023-04-12T07:51:00.021Z,12.35
2023-04-12T07:53:29.179Z,12.82
2023-04-12T07:55:56.817Z,16.52
2023-04-12T07:58:25.726Z,16.15
2023-04-12T08:01:01.369Z,14.20
2023-04-12T08:03:30.120Z,11.65
2023-04-12T08:05:58.173Z,16.73
2023-04-12T08:08:26.208Z,12.90
2023-04-12T08:10:54.328Z,13.03
2023-04-12T08:13:22.325Z,15.32
2023-04-12T08:15:50.308Z,12.40
2023-04-12T08:18:18.828Z,16.25
2023-04-12T08:20:46.814Z,15.83
2023-04-12T08:23:14.539Z,11.85
2023-04-12T08:25:42.327Z,12.95
2023-04-12T08:28:13.192Z,12.82
2023-04-12T08:30:41.253Z,11.00
2023-04-12T08:33:09.489Z,18.32
2023-04-12T08:35:37.728Z,11.18
2023-04-12T08:38:08.208Z,13.78
2023-04-12T08:40:36.460Z,11.28
2023-04-12T08:43:08.533Z,14.43
2023-04-12T08:45:37.105Z,13.00
2023-04-12T08:48:06.294Z,11.15
2023-04-12T08:50:34.692Z,12.40
2023-04-12T08:53:03.827Z,11.10
2023-04-12T08:55:31.301Z,11.18
2023-04-12T08:57:59.368Z,10.53
2023-04-12T09:00:27.975Z,12.18
2023-04-12T09:02:56.562Z,12.98
2023-04-12T09:05:30.554Z,11.85
2023-04-12T09:07:59.102Z,12.10
2023-04-12T09:10:38.701Z,11.20
2023-04-12T09:13:07.097Z,10.32
2023-04-12T09:15:34.864Z,12.68
2023-04-12T09:18:11.731Z,13.20
2023-04-12T09:20:40.098Z,12.25
2023-04-12T09:23:20.232Z,12.03
2023-04-12T09:25:53.441Z,9.68
2023-04-12T09:28:26.429Z,14.98
2023-04-12T09:30:55.994Z,11.90
2023-04-12T09:33:39.052Z,12.43
2023-04-12T09:36:10.007Z,12.45
2023-04-12T09:38:40.591Z,10.80
2023-04-12T09:41:26.855Z,9.25
2023-04-12T09:43:52.526Z,11.78
2023-04-12T09:46:20.745Z,12.70
2023-04-12T09:48:54.090Z,10.08
2023-04-12T09:51:31.501Z,10.40
2023-04-12T09:54:02.120Z,11.12
2023-04-12T09:56:33.419Z,9.05
2023-04-12T09:59:04.217Z,9.83
2023-04-12T10:01:37.164Z,9.90
2023-04-12T10:04:09.998Z,11.85
2023-04-12T10:06:38.204Z,13.05
2023-04-12T10:09:07.141Z,11.53
2023-04-12T10:11:35.119Z,11.18
2023-04-12T10:14:03.902Z,16.57
2023-04-12T10:16:33.607Z,13.75
2023-04-12T10:19:04.113Z,10.80
2023-04-12T10:21:37.126Z,13.43
2023-04-12T10:27:04.713Z,14.55
2023-04-12T10:29:37.865Z,9.50
2023-04-12T10:32:24.064Z,16.45
2023-04-12T10:34:59.489Z,12.25
2023-04-12T10:38:02.218Z,10.55
2023-04-12T10:40:33.520Z,11.10
2023-04-12T10:43:21.579Z,10.10
2023-04-12T10:45:50.502Z,11.65
2023-04-12T10:48:36.400Z,10.55
2023-04-12T10:51:29.125Z,16.17
2023-04-12T10:54:20.798Z,9.78
2023-04-12T10:56:49.430Z,9.08
2023-04-12T10:59:19.113Z,10.20
2023-04-12T11:02:13.334Z,9.90
2023-04-12T11:05:08.632Z,13.28
2023-04-12T11:07:55.683Z,8.98
2023-04-12T11:10:28.969Z,9.03
2023-04-12T11:12:57.572Z,9.58
2023-04-12T11:15:29.392Z,10.60
2023-04-12T11:18:17.751Z,10.15
2023-04-12T11:20:46.136Z,8.88
2023-04-12T11:23:15.370Z,9.85
2023-04-12T11:25:44.958Z,9.73
2023-04-12T11:28:27.921Z,11.83
2023-04-12T11:30:56.333Z,10.25
2023-04-12T11:33:39.951Z,9.35
2023-04-12T11:36:12.439Z,10.65
2023-04-12T11:38:55.732Z,8.43
2023-04-12T11:41:24.103Z,15.53
2023-04-12T11:44:04.404Z,9.08
2023-04-12T11:46:38.736Z,10.50
2023-04-12T11:49:13.605Z,12.23
2023-04-12T11:51:41.940Z,17.12
2023-04-12T11:54:16.298Z,15.45
2023-04-12T11:56:45.851Z,12.35
2023-04-12T11:59:14.164Z,10.82
2023-04-12T12:01:42.973Z,13.95
2023-04-12T12:04:11.344Z,13.72
2023-04-12T12:06:39.459Z,11.28
2023-04-12T12:09:10.492Z,11.70
2023-04-12T12:11:38.014Z,12.33
2023-04-12T12:14:07.330Z,11.70
2023-04-12T12:16:37.341Z,11.25
2023-04-12T12:19:08.367Z,12.28
2023-04-12T12:21:36.191Z,12.82
2023-04-12T12:24:04.787Z,12.65
2023-04-12T12:26:36.047Z,11.03
2023-04-12T12:29:04.635Z,9.95
2023-04-12T12:31:35.131Z,14.63
2023-04-12T12:34:05.787Z,11.10
2023-04-12T12:36:39.255Z,10.68
2023-04-12T12:39:11.560Z,10.65
2023-04-12T12:41:41.732Z,11.70
2023-04-12T12:47:10.245Z,10.30
2023-04-12T12:49:31.464Z,10.90
2023-04-12T12:51:59.588Z,13.62
2023-04-12T12:54:40.460Z,11.95
2023-04-12T12:56:59.928Z,11.25
2023-04-12T12:59:28.062Z,12.03
2023-04-12T13:01:56.672Z,14.40
2023-04-12T13:04:24.590Z,11.60
2023-04-12T13:06:53.184Z,11.08
2023-04-12T13:09:21.510Z,12.23
2023-04-12T13:11:49.824Z,10.45
2023-04-12T13:14:17.736Z,18.65
2023-04-12T13:16:46.566Z,15.65
2023-04-12T13:19:15.710Z,11.45
2023-04-12T13:21:43.482Z,13.45
2023-04-12T13:24:11.489Z,11.05
2023-04-12T13:26:40.803Z,11.53
2023-04-12T13:29:08.629Z,12.20
2023-04-12T13:31:36.774Z,9.78
2023-04-12T13:34:04.685Z,12.10
2023-04-12T13:36:33.210Z,10.15
2023-04-12T13:39:01.172Z,9.65
2023-04-12T13:41:32.272Z,12.70
2023-04-12T13:44:00.628Z,12.55
2023-04-12T13:46:28.336Z,10.18
2023-04-12T13:48:56.469Z,10.65
2023-04-12T13:51:24.545Z,10.65
2023-04-12T13:53:53.595Z,10.03
2023-04-12T13:56:22.283Z,11.00
2023-04-12T13:58:52.805Z,11.90
2023-04-12T14:01:22.636Z,14.78
2023-04-12T14:03:50.641Z,11.93
2023-04-12T14:06:18.475Z,12.40
2023-04-12T14:08:48.300Z,12.35
2023-04-12T14:11:30.975Z,12.43
2023-04-12T14:13:58.259Z,14.93
2023-04-12T14:16:28.970Z,13.22
2023-04-12T14:18:57.074Z,15.03
2023-04-12T14:21:28.933Z,15.18
2023-04-12T14:23:56.912Z,14.18
2023-04-12T14:26:45.851Z,14.33
2023-04-12T14:29:16.536Z,15.35
2023-04-12T14:31:44.493Z,12.37
2023-04-12T14:34:13.676Z,13.03
2023-04-12T14:36:41.666Z,12.37
2023-04-12T14:39:11.269Z,13.35
2023-04-12T14:41:43.983Z,12.98
2023-04-12T14:44:15.080Z,13.53
2023-04-12T14:46:43.327Z,15.15
2023-04-12T14:49:11.333Z,18.82
2023-04-12T14:51:39.617Z,16.32
2023-04-12T14:54:10.683Z,18.30
2023-04-12T14:56:46.461Z,14.23
2023-04-12T14:59:08.120Z,14.05
2023-04-12T15:01:47.944Z,13.55
2023-04-12T15:04:16.027Z,12.28
2023-04-12T15:06:46.140Z,13.83
2023-04-12T15:09:15.850Z,14.23
2023-04-12T15:11:47.576Z,19.07
2023-04-12T15:14:20.908Z,14.85
2023-04-12T15:16:51.175Z,15.18
2023-04-12T15:19:22.913Z,16.27
2023-04-12T15:21:52.561Z,16.40
2023-04-12T15:24:21.214Z,15.78
2023-04-12T15:26:53.821Z,16.87
2023-04-12T15:29:23.731Z,14.07
2023-04-12T15:31:51.995Z,15.10
2023-04-12T15:34:19.958Z,13.95
2023-04-12T15:36:47.803Z,13.00
2023-04-12T15:39:16.295Z,12.18
2023-04-12T15:41:44.810Z,15.60
2023-04-12T15:44:13.827Z,13.48
2023-04-12T15:46:42.491Z,14.28
2023-04-12T15:49:11.374Z,14.87
2023-04-12T15:51:39.372Z,17.55
2023-04-12T15:54:07.242Z,19.00
2023-04-12T15:56:35.731Z,14.10
2023-04-12T15:59:03.563Z,15.38
2023-04-12T16:01:31.210Z,14.38
2023-04-12T16:03:59.400Z,16.02
2023-04-12T16:06:28.516Z,14.13
2023-04-12T16:08:59.869Z,18.25
2023-04-12T16:11:28.668Z,14.25
2023-04-12T16:13:58.034Z,15.03
2023-04-12T16:16:25.975Z,16.12
2023-04-12T16:18:56.068Z,17.27
2023-04-12T16:21:26.280Z,16.93
2023-04-12T16:23:54.878Z,15.40
2023-04-12T16:26:24.964Z,17.95
2023-04-12T16:29:01.552Z,15.20
2023-04-12T16:31:33.327Z,16.00
2023-04-12T16:34:01.518Z,18.45
2023-04-12T16:36:32.190Z,16.93
2023-04-12T16:39:04.678Z,23.35
2023-04-12T16:41:33.331Z,19.17
2023-04-12T16:44:03.626Z,21.20
2023-04-12T16:46:40.546Z,15.85
2023-04-12T16:49:10.236Z,17.17
2023-04-12T16:51:38.077Z,15.40
2023-04-12T16:54:06.773Z,16.42
2023-04-12T16:56:34.429Z,18.35
2023-04-12T16:59:04.228Z,22.65
2023-04-12T17:01:33.583Z,19.57
2023-04-12T17:04:02.295Z,17.42
2023-04-12T17:06:32.460Z,16.82
2023-04-12T17:09:01.112Z,26.80
2023-04-12T17:11:29.944Z,34.90
2023-04-12T17:13:58.235Z,21.55
2023-04-12T17:16:29.249Z,26.45
2023-04-12T17:18:57.913Z,19.45
2023-04-12T17:21:29.873Z,19.35
2023-04-12T17:24:01.150Z,20.25
2023-04-12T17:26:29.170Z,16.80
2023-04-12T17:28:57.219Z,20.32
2023-04-12T17:31:26.608Z,17.67
2023-04-12T17:34:01.106Z,22.60
2023-04-12T17:36:33.767Z,17.95
2023-04-12T17:39:03.684Z,17.75
2023-04-12T17:41:31.833Z,19.85
2023-04-12T17:43:59.888Z,16.35
2023-04-12T17:46:28.017Z,17.25
2023-04-12T17:48:55.860Z,18.45
2023-04-12T17:51:23.700Z,18.80
2023-04-12T17:57:00.135Z,18.57
2023-04-12T17:59:29.839Z,15.90
2023-04-12T18:01:58.446Z,20.35
2023-04-12T18:04:27.840Z,17.17
2023-04-12T18:06:58.075Z,13.88
2023-04-12T18:09:28.971Z,23.10
2023-04-12T18:11:59.067Z,20.60
2023-04-12T18:14:29.772Z,22.27
2023-04-12T18:16:57.511Z,21.12
2023-04-12T18:19:33.594Z,22.30
2023-04-12T18:22:01.802Z,21.15
2023-04-12T18:24:29.340Z,20.92
2023-04-12T18:26:58.894Z,23.85
2023-04-12T18:29:27.856Z,27.07
2023-04-12T18:31:56.379Z,23.52
2023-04-12T18:34:24.316Z,23.62
2023-04-12T18:36:53.845Z,17.62
2023-04-12T18:39:21.585Z,20.90
2023-04-12T18:41:49.404Z,23.10
2023-04-12T18:44:18.721Z,21.77
2023-04-12T18:46:46.692Z,97.57
2023-04-12T18:49:14.896Z,50.43
2023-04-12T18:51:43.263Z,25.30
2023-04-12T18:54:16.520Z,21.52
2023-04-12T18:56:44.665Z,21.95
2023-04-12T18:59:17.490Z,20.82
2023-04-12T19:01:46.444Z,20.95
2023-04-12T19:04:16.926Z,23.52
2023-04-12T19:06:46.196Z,21.33
2023-04-12T19:09:14.815Z,21.00
2023-04-12T19:11:44.248Z,20.90
2023-04-12T19:14:13.416Z,19.23
2023-04-12T19:16:42.608Z,22.60
2023-04-12T19:19:11.769Z,20.88
2023-04-12T19:21:49.921Z,23.20
2023-04-12T19:27:25.387Z,20.00
2023-04-12T19:29:57.024Z,22.87
2023-04-12T19:32:27.039Z,19.27
2023-04-12T19:34:58.657Z,19.45
2023-04-12T19:37:34.365Z,19.82
2023-04-12T19:40:08.143Z,19.75
2023-04-12T19:42:41.839Z,20.72
2023-04-12T19:45:31.520Z,24.00
2023-04-12T19:48:00.914Z,21.87
2023-04-12T19:50:35.435Z,17.52
2023-04-12T19:56:00.162Z,22.13
2023-04-12T19:58:39.014Z,19.02
2023-04-12T20:01:10.094Z,18.75
2023-04-12T20:04:00.890Z,22.70
2023-04-12T20:06:36.638Z,16.95
2023-04-12T20:12:00.269Z,17.95
2023-04-12T20:14:35.632Z,17.25
2023-04-12T20:17:21.382Z,18.67
2023-04-12T20:19:58.779Z,17.32
2023-04-12T20:22:29.560Z,15.83
2023-04-12T20:25:07.617Z,21.10
2023-04-12T20:27:40.617Z,17.70
2023-04-12T20:30:15.354Z,19.10
2023-04-12T20:32:45.341Z,20.27
2023-04-12T20:35:26.899Z,18.32
2023-04-12T20:37:58.398Z,25.97
2023-04-12T20:40:38.891Z,22.90
2023-04-12T20:43:09.050Z,19.10
2023-04-12T20:45:42.884Z,20.30
2023-04-12T20:51:08.041Z,21.68
2023-04-12T20:56:29.475Z,22.05
2023-04-12T20:59:02.766Z,20.40
2023-04-12T21:01:31.921Z,25.73
2023-04-12T21:04:04.585Z,24.47
2023-04-12T21:06:35.077Z,22.95
2023-04-12T21:09:29.934Z,21.73
2023-04-12T21:11:58.012Z,19.50
2023-04-12T21:14:28.083Z,18.23
2023-04-12T21:16:57.261Z,21.90
2023-04-12T21:19:25.796Z,24.05
2023-04-12T21:21:53.787Z,18.98
2023-04-12T21:24:25.097Z,22.10
2023-04-12T21:26:56.897Z,18.23
2023-04-12T21:29:28.108Z,23.20
2023-04-12T21:31:58.091Z,21.15
2023-04-12T21:34:26.921Z,22.95
2023-04-12T21:36:55.598Z,22.22
2023-04-12T21:39:23.881Z,23.02
2023-04-12T21:41:52.326Z,24.12
2023-04-12T21:44:21.320Z,19.57
2023-04-12T21:46:49.397Z,22.50
2023-04-12T21:49:18.392Z,22.75
2023-04-12T21:51:59.742Z,21.77
2023-04-12T21:54:29.416Z,20.02
2023-04-12T21:56:57.663Z,24.72
2023-04-12T21:59:26.881Z,21.05
2023-04-12T22:01:54.605Z,20.65
2023-04-12T22:04:23.787Z,23.50
2023-04-12T22:06:53.209Z,20.95
2023-04-12T22:09:21.324Z,21.97
2023-04-12T22:11:49.735Z,22.80
2023-04-12T22:14:18.409Z,24.57
2023-04-12T22:16:46.889Z,18.75
2023-04-12T22:19:15.868Z,21.17
2023-04-12T22:21:43.901Z,21.95
2023-04-12T22:24:12.540Z,22.73
2023-04-12T22:26:40.262Z,21.55
2023-04-12T22:29:08.157Z,27.20
2023-04-12T22:31:38.245Z,21.10
2023-04-12T22:34:06.464Z,21.30
2023-04-12T22:36:36.208Z,20.92
2023-04-12T22:39:05.118Z,21.17
2023-04-12T22:41:33.810Z,21.10
2023-04-12T22:44:02.040Z,22.50
2023-04-12T22:46:33.775Z,19.40
2023-04-12T22:49:04.404Z,18.92
2023-04-12T22:51:32.854Z,21.73
2023-04-12T22:54:02.592Z,21.35
2023-04-12T22:56:30.447Z,22.45
2023-04-12T22:58:58.204Z,20.25
2023-04-12T23:01:26.371Z,19.98
2023-04-12T23:03:54.566Z,20.65
2023-04-12T23:06:26.168Z,19.00
2023-04-12T23:08:54.328Z,23.32
2023-04-12T23:11:22.416Z,21.48
2023-04-12T23:13:50.621Z,23.27
2023-04-12T23:16:18.503Z,21.73
2023-04-12T23:18:46.582Z,21.57
2023-04-12T23:21:15.121Z,23.55
2023-04-12T23:23:43.435Z,23.38
2023-04-12T23:26:14.266Z,20.20
2023-04-12T23:28:42.434Z,21.57
2023-04-12T23:31:10.216Z,21.02
2023-04-12T23:33:40.007Z,20.30
2023-04-12T23:36:08.494Z,17.95
2023-04-12T23:38:41.240Z,19.25
2023-04-12T23:41:13.533Z,23.98
2023-04-12T23:43:42.031Z,22.30
2023-04-12T23:46:10.136Z,20.17
2023-04-12T23:48:37.950Z,21.12
2023-04-12T23:51:06.420Z,20.30
2023-04-12T23:53:34.195Z,19.15
2023-04-12T23:56:03.202Z,21.05
2023-04-12T23:58:38.008Z,20.50
